createdAt,value
2023-03-26T00:00:47.518Z,7.27
2023-03-26T00:01:47.517Z,7.24
2023-03-26T00:02:47.513Z,7.20
2023-03-26T00:03:47.461Z,7.25
2023-03-26T00:04:47.477Z,7.23
2023-03-26T00:05:47.535Z,7.15
2023-03-26T00:06:47.462Z,7.25
2023-03-26T00:07:47.423Z,7.23
2023-03-26T00:08:47.418Z,7.17
2023-03-26T00:09:47.395Z,7.25
2023-03-26T00:10:47.383Z,7.23
2023-03-26T00:11:47.422Z,7.23
2023-03-26T00:12:47.368Z,7.12
2023-03-26T00:13:47.372Z,7.12
2023-03-26T00:14:47.356Z,7.12
2023-03-26T00:15:47.334Z,7.15
2023-03-26T00:16:47.739Z,7.12
2023-03-26T00:17:47.376Z,7.12
2023-03-26T00:18:47.303Z,7.20
2023-03-26T00:19:47.297Z,7.12
2023-03-26T00:20:47.309Z,7.09
2023-03-26T00:21:47.265Z,7.09
2023-03-26T00:22:47.259Z,7.09
2023-03-26T00:23:47.248Z,7.16
2023-03-26T00:24:47.244Z,7.10
2023-03-26T00:25:49.147Z,7.10
2023-03-26T00:26:47.215Z,7.13
2023-03-26T00:27:47.200Z,7.06
2023-03-26T00:28:47.187Z,7.09
2023-03-26T00:29:47.205Z,7.15
2023-03-26T00:30:47.273Z,7.07
2023-03-26T00:31:47.156Z,7.10
2023-03-26T00:32:53.592Z,7.12
2023-03-26T00:33:47.136Z,7.24
2023-03-26T00:34:47.152Z,7.12
2023-03-26T00:35:47.190Z,7.12
2023-03-26T00:36:47.383Z,7.16
2023-03-26T00:37:47.099Z,7.13
2023-03-26T00:38:47.079Z,7.16
2023-03-26T00:39:47.071Z,7.10
2023-03-26T00:40:47.083Z,7.13
2023-03-26T00:41:47.047Z,7.10
2023-03-26T00:42:47.047Z,7.15
2023-03-26T00:43:47.023Z,7.10
2023-03-26T00:44:47.016Z,7.10
2023-03-26T00:45:47.075Z,7.13
2023-03-26T00:46:47.252Z,7.07
2023-03-26T00:47:47.052Z,7.10
2023-03-26T00:48:46.996Z,7.10
2023-03-26T00:49:46.980Z,7.13
2023-03-26T00:50:46.953Z,7.23
2023-03-26T00:51:46.962Z,7.16
2023-03-26T00:53:46.929Z,7.13
2023-03-26T00:54:46.908Z,7.24
2023-03-26T00:55:46.892Z,7.24
2023-03-26T00:56:46.977Z,7.20
2023-03-26T00:57:46.868Z,7.23
2023-03-26T00:58:46.872Z,7.21
2023-03-26T00:59:46.855Z,7.24
2023-03-26T01:00:46.956Z,7.17
2023-03-26T01:01:46.894Z,7.23
2023-03-26T01:02:46.922Z,7.24
2023-03-26T01:03:57.113Z,7.21
2023-03-26T01:04:47.947Z,7.25
2023-03-26T01:05:46.785Z,7.31
2023-03-26T01:06:46.851Z,7.25
2023-03-26T01:07:46.782Z,7.21
2023-03-26T01:08:46.786Z,7.25
2023-03-26T01:09:46.737Z,7.23
2023-03-26T01:10:46.742Z,7.28
2023-03-26T01:11:46.712Z,7.27
2023-03-26T01:12:46.704Z,7.27
2023-03-26T01:13:46.717Z,7.24
2023-03-26T01:14:46.676Z,7.24
2023-03-26T01:15:46.702Z,7.24
2023-03-26T01:16:46.699Z,7.30
2023-03-26T01:17:46.733Z,7.31
2023-03-26T01:18:46.656Z,7.27
2023-03-26T01:19:46.635Z,7.28
2023-03-26T01:20:46.625Z,7.27
2023-03-26T01:21:46.607Z,7.32
2023-03-26T01:22:46.769Z,7.34
2023-03-26T01:23:46.588Z,7.31
2023-03-26T01:24:46.566Z,7.35
2023-03-26T01:25:46.567Z,7.32
2023-03-26T01:26:46.550Z,7.31
2023-03-26T01:27:46.558Z,7.27
2023-03-26T01:28:46.555Z,7.28
2023-03-26T01:29:46.529Z,7.34
2023-03-26T01:30:46.506Z,7.35
2023-03-26T01:31:46.488Z,7.30
2023-03-26T01:32:46.581Z,7.32
2023-03-26T01:33:46.517Z,7.39
2023-03-26T01:34:46.476Z,7.37
2023-03-26T01:35:46.471Z,7.37
2023-03-26T01:36:46.448Z,7.30
2023-03-26T01:37:46.452Z,7.34
2023-03-26T01:38:46.417Z,7.37
2023-03-26T01:39:46.415Z,7.35
2023-03-26T01:40:46.405Z,7.39
2023-03-26T01:41:46.380Z,7.43
2023-03-26T01:42:46.390Z,7.37
2023-03-26T01:43:46.354Z,7.35
2023-03-26T01:44:46.379Z,7.39
2023-03-26T01:45:46.326Z,7.40
2023-03-26T01:46:46.391Z,7.45
2023-03-26T01:47:46.373Z,7.40
2023-03-26T01:48:46.326Z,7.40
2023-03-26T01:49:46.299Z,7.42
2023-03-26T01:50:46.298Z,7.35
2023-03-26T01:51:46.271Z,7.42
2023-03-26T01:52:46.332Z,7.37
2023-03-26T01:53:46.265Z,7.43
2023-03-26T01:54:46.235Z,7.34
2023-03-26T01:55:46.242Z,7.40
2023-03-26T01:56:46.240Z,7.39
2023-03-26T01:57:46.199Z,7.43
2023-03-26T01:58:46.209Z,7.43
2023-03-26T01:59:46.193Z,7.40
2023-03-26T02:00:46.171Z,7.42
2023-03-26T02:01:46.290Z,7.45
2023-03-26T02:02:46.338Z,7.40
2023-03-26T02:03:46.197Z,7.42
2023-03-26T02:04:46.259Z,7.43
2023-03-26T02:05:46.244Z,7.40
2023-03-26T02:06:46.261Z,7.46
2023-03-26T02:07:46.225Z,7.40
2023-03-26T02:08:46.143Z,7.42
2023-03-26T02:09:46.255Z,7.45
2023-03-26T02:10:46.194Z,7.42
2023-03-26T02:11:46.166Z,7.49
2023-03-26T02:12:46.116Z,7.48
2023-03-26T02:13:46.420Z,7.46
2023-03-26T02:14:46.142Z,7.55
2023-03-26T02:15:46.161Z,7.52
2023-03-26T02:16:46.210Z,7.52
2023-03-26T02:17:46.159Z,7.50
2023-03-26T02:18:46.030Z,7.46
2023-03-26T02:19:45.951Z,7.50
2023-03-26T02:20:45.944Z,7.50
2023-03-26T02:21:45.943Z,7.50
2023-03-26T02:22:46.178Z,7.45
2023-03-26T02:23:45.921Z,7.50
2023-03-26T02:24:45.908Z,7.43
2023-03-26T02:25:45.929Z,7.52
2023-03-26T02:26:45.884Z,7.43
2023-03-26T02:27:45.871Z,7.45
2023-03-26T02:28:45.853Z,7.50
2023-03-26T02:29:45.868Z,7.48
2023-03-26T02:30:45.897Z,7.48
2023-03-26T02:31:45.871Z,7.49
2023-03-26T02:32:45.830Z,7.49
2023-03-26T02:33:45.805Z,7.50
2023-03-26T02:34:45.825Z,7.42
2023-03-26T02:35:45.985Z,7.48
2023-03-26T02:36:45.798Z,7.49
2023-03-26T02:37:45.784Z,7.46
2023-03-26T02:38:45.797Z,7.52
2023-03-26T02:39:45.754Z,7.49
2023-03-26T02:40:45.720Z,7.49
2023-03-26T02:41:45.748Z,7.46
2023-03-26T02:42:45.695Z,7.46
2023-03-26T02:43:45.696Z,7.48
2023-03-26T02:44:45.677Z,7.52
2023-03-26T02:45:45.685Z,7.46
2023-03-26T02:46:45.686Z,7.46
2023-03-26T02:47:45.685Z,7.40
2023-03-26T02:48:45.637Z,7.46
2023-03-26T02:49:45.620Z,7.46
2023-03-26T02:50:45.624Z,7.35
2023-03-26T02:51:45.613Z,7.39
2023-03-26T02:52:45.595Z,7.40
2023-03-26T02:53:45.572Z,7.35
2023-03-26T02:54:45.581Z,7.39
2023-03-26T02:55:45.598Z,7.46
2023-03-26T02:56:45.595Z,7.40
2023-03-26T02:57:45.531Z,7.46
2023-03-26T02:58:45.536Z,7.32
2023-03-26T02:59:45.503Z,7.40
2023-03-26T03:00:45.525Z,7.43
2023-03-26T03:01:45.516Z,7.45
2023-03-26T03:02:45.547Z,7.42
2023-03-26T03:03:45.462Z,7.48
2023-03-26T03:04:45.472Z,7.39
2023-03-26T03:05:45.465Z,7.40
2023-03-26T03:06:45.431Z,7.39
2023-03-26T03:07:45.422Z,7.43
2023-03-26T03:08:45.410Z,7.35
2023-03-26T03:09:45.393Z,7.35
2023-03-26T03:10:45.427Z,7.35
2023-03-26T03:11:45.402Z,7.34
2023-03-26T03:12:45.368Z,7.32
2023-03-26T03:13:45.381Z,7.30
2023-03-26T03:14:45.386Z,7.28
2023-03-26T03:15:45.340Z,7.31
2023-03-26T03:16:45.345Z,7.31
2023-03-26T03:17:45.339Z,7.30
2023-03-26T03:18:45.323Z,7.35
2023-03-26T03:19:45.286Z,7.35
2023-03-26T03:20:45.287Z,7.39
2023-03-26T03:21:45.266Z,7.37
2023-03-26T03:22:45.252Z,7.39
2023-03-26T03:23:45.257Z,7.40
2023-03-26T03:24:45.238Z,7.34
2023-03-26T03:25:45.213Z,7.42
2023-03-26T03:26:45.248Z,7.45
2023-03-26T03:27:45.200Z,7.45
2023-03-26T03:28:45.261Z,7.45
2023-03-26T03:29:45.194Z,7.39
2023-03-26T03:30:45.275Z,7.40
2023-03-26T03:31:45.172Z,7.37
2023-03-26T03:32:45.195Z,7.43
2023-03-26T03:33:45.162Z,7.34
2023-03-26T03:34:45.121Z,7.35
2023-03-26T03:35:45.110Z,7.40
2023-03-26T03:36:45.100Z,7.37
2023-03-26T03:37:45.125Z,7.34
2023-03-26T03:38:45.086Z,7.31
2023-03-26T03:39:45.057Z,7.31
2023-03-26T03:40:45.087Z,7.32
2023-03-26T03:41:45.051Z,7.40
2023-03-26T03:42:45.080Z,7.39
2023-03-26T03:43:45.020Z,7.37
2023-03-26T03:44:45.009Z,7.34
2023-03-26T03:45:45.009Z,7.35
2023-03-26T03:46:45.018Z,7.32
2023-03-26T03:47:45.046Z,7.25
2023-03-26T03:48:44.967Z,7.30
2023-03-26T03:49:44.983Z,7.27
2023-03-26T03:50:44.945Z,7.24
2023-03-26T03:51:44.929Z,7.27
2023-03-26T03:52:44.919Z,7.31
2023-03-26T03:53:44.930Z,7.25
2023-03-26T03:54:44.922Z,7.17
2023-03-26T03:55:44.892Z,7.31
2023-03-26T03:56:44.909Z,7.23
2023-03-26T03:57:44.883Z,7.17
2023-03-26T03:58:44.884Z,7.21
2023-03-26T03:59:47.652Z,7.15
2023-03-26T04:00:44.836Z,7.23
2023-03-26T04:01:44.847Z,7.24
2023-03-26T04:02:44.892Z,7.21
2023-03-26T04:03:44.943Z,7.21
2023-03-26T04:04:44.835Z,7.12
2023-03-26T04:05:44.789Z,7.12
2023-03-26T04:06:44.786Z,7.16
2023-03-26T04:07:44.778Z,7.12
2023-03-26T04:08:44.742Z,7.09
2023-03-26T04:09:44.758Z,7.12
2023-03-26T04:10:44.718Z,7.10
2023-03-26T04:11:44.710Z,7.12
2023-03-26T04:12:44.726Z,7.23
2023-03-26T04:13:44.708Z,7.25
2023-03-26T04:14:44.690Z,7.20
2023-03-26T04:15:44.707Z,7.23
2023-03-26T04:16:44.653Z,7.21
2023-03-26T04:17:44.683Z,7.25
2023-03-26T04:18:44.627Z,7.20
2023-03-26T04:19:44.616Z,7.13
2023-03-26T04:20:44.622Z,7.16
2023-03-26T04:21:44.619Z,7.15
2023-03-26T04:22:44.603Z,7.13
2023-03-26T04:23:44.583Z,7.10
2023-03-26T04:24:44.562Z,7.10
2023-03-26T04:25:44.566Z,7.05
2023-03-26T04:26:44.542Z,7.09
2023-03-26T04:27:44.552Z,7.12
2023-03-26T04:28:44.524Z,7.10
2023-03-26T04:29:44.516Z,7.12
2023-03-26T04:30:44.515Z,7.09
2023-03-26T04:31:44.495Z,7.09
2023-03-26T04:32:44.519Z,7.02
2023-03-26T04:33:44.474Z,7.03
2023-03-26T04:34:44.458Z,6.99
2023-03-26T04:35:44.540Z,7.02
2023-03-26T04:36:44.431Z,7.10
2023-03-26T04:37:44.438Z,7.02
2023-03-26T04:38:44.408Z,6.98
2023-03-26T04:39:44.430Z,7.05
2023-03-26T04:40:44.394Z,7.07
2023-03-26T04:41:44.376Z,7.09
2023-03-26T04:42:44.397Z,6.97
2023-03-26T04:43:44.349Z,6.98
2023-03-26T04:44:44.369Z,7.02
2023-03-26T04:45:44.329Z,7.05
2023-03-26T04:46:44.367Z,6.99
2023-03-26T04:47:44.310Z,6.95
2023-03-26T04:48:44.295Z,6.95
2023-03-26T04:49:44.519Z,7.03
2023-03-26T04:50:44.283Z,6.91
2023-03-26T04:51:44.268Z,6.95
2023-03-26T04:52:45.483Z,6.97
2023-03-26T04:53:44.279Z,6.94
2023-03-26T04:54:44.243Z,6.94
2023-03-26T04:55:44.222Z,6.91
2023-03-26T04:56:44.258Z,6.97
2023-03-26T04:57:44.213Z,7.02
2023-03-26T04:58:44.206Z,6.91
2023-03-26T04:59:44.171Z,6.88
2023-03-26T05:00:44.201Z,6.92
2023-03-26T05:01:44.225Z,6.92
2023-03-26T05:02:44.197Z,6.99
2023-03-26T05:03:44.136Z,6.94
2023-03-26T05:04:44.148Z,6.91
2023-03-26T05:05:44.154Z,6.97
2023-03-26T05:06:44.101Z,6.94
2023-03-26T05:07:44.083Z,6.91
2023-03-26T05:08:44.109Z,6.98
2023-03-26T05:09:44.054Z,6.92
2023-03-26T05:10:44.050Z,6.81
2023-03-26T05:11:44.070Z,6.95
2023-03-26T05:12:44.033Z,6.94
2023-03-26T05:13:44.014Z,6.87
2023-03-26T05:14:44.026Z,6.91
2023-03-26T05:15:43.992Z,6.91
2023-03-26T05:16:44.046Z,6.95
2023-03-26T05:17:44.025Z,6.92
2023-03-26T05:18:43.997Z,6.98
2023-03-26T05:19:43.950Z,6.89
2023-03-26T05:20:43.962Z,6.92
2023-03-26T05:21:43.925Z,6.97
2023-03-26T05:22:43.914Z,6.97
2023-03-26T05:23:43.912Z,6.94
2023-03-26T05:24:43.892Z,6.89
2023-03-26T05:25:43.903Z,6.91
2023-03-26T05:26:43.894Z,6.97
2023-03-26T05:27:43.857Z,6.95
2023-03-26T05:28:43.847Z,6.94
2023-03-26T05:29:43.870Z,6.88
2023-03-26T05:30:43.852Z,6.98
2023-03-26T05:31:43.811Z,6.89
2023-03-26T05:32:43.897Z,6.97
2023-03-26T05:33:43.924Z,6.97
2023-03-26T05:34:43.798Z,6.98
2023-03-26T05:35:43.830Z,7.10
2023-03-26T05:36:43.760Z,7.06
2023-03-26T05:37:43.749Z,7.10
2023-03-26T05:38:43.759Z,7.06
2023-03-26T05:39:43.725Z,7.10
2023-03-26T05:40:43.717Z,7.12
2023-03-26T05:41:43.702Z,7.09
2023-03-26T05:42:43.698Z,7.07
2023-03-26T05:43:43.678Z,7.07
2023-03-26T05:44:43.701Z,7.09
2023-03-26T05:45:43.695Z,7.10
2023-03-26T05:46:43.659Z,7.07
2023-03-26T05:47:43.702Z,7.07
2023-03-26T05:48:43.627Z,7.09
2023-03-26T05:49:43.649Z,7.23
2023-03-26T05:50:43.628Z,7.23
2023-03-26T05:51:43.595Z,7.20
2023-03-26T05:52:43.676Z,7.32
2023-03-26T05:53:43.575Z,7.27
2023-03-26T05:54:43.576Z,7.32
2023-03-26T05:55:43.549Z,7.37
2023-03-26T05:56:43.606Z,7.40
2023-03-26T05:57:43.567Z,7.45
2023-03-26T05:58:43.524Z,7.45
2023-03-26T05:59:43.509Z,7.43
2023-03-26T06:00:43.489Z,7.45
2023-03-26T06:01:43.476Z,7.50
2023-03-26T06:02:43.497Z,7.45
2023-03-26T06:03:43.537Z,7.53
2023-03-26T06:04:43.561Z,7.49
2023-03-26T06:05:43.434Z,7.53
2023-03-26T06:06:43.455Z,7.50
2023-03-26T06:07:43.409Z,7.61
2023-03-26T06:08:43.425Z,7.63
2023-03-26T06:09:43.389Z,7.63
2023-03-26T06:10:43.379Z,7.60
2023-03-26T06:11:43.375Z,7.67
2023-03-26T06:12:43.354Z,7.64
2023-03-26T06:13:43.365Z,7.68
2023-03-26T06:14:43.340Z,7.67
2023-03-26T06:15:43.337Z,7.69
2023-03-26T06:16:43.389Z,7.82
2023-03-26T06:17:43.338Z,7.77
2023-03-26T06:18:43.352Z,7.83
2023-03-26T06:19:43.295Z,7.74
2023-03-26T06:20:43.264Z,7.74
2023-03-26T06:21:43.262Z,7.72
2023-03-26T06:22:43.276Z,7.74
2023-03-26T06:23:43.234Z,7.80
2023-03-26T06:24:43.243Z,7.74
2023-03-26T06:25:43.216Z,7.87
2023-03-26T06:26:43.199Z,7.90
2023-03-26T06:27:43.227Z,7.87
2023-03-26T06:28:43.205Z,7.95
2023-03-26T06:29:43.208Z,7.95
2023-03-26T06:30:43.153Z,7.97
2023-03-26T06:31:43.181Z,7.97
2023-03-26T06:32:43.178Z,8.04
2023-03-26T06:33:43.129Z,8.00
2023-03-26T06:34:43.150Z,7.92
2023-03-26T06:35:43.161Z,7.92
2023-03-26T06:36:43.092Z,8.00
2023-03-26T06:37:43.095Z,8.00
2023-03-26T06:38:43.084Z,8.02
2023-03-26T06:39:43.082Z,8.02
2023-03-26T06:40:43.080Z,8.04
2023-03-26T06:41:43.071Z,8.08
2023-03-26T06:43:08.174Z,8.05
2023-03-26T06:43:44.034Z,8.11
2023-03-26T06:44:43.004Z,8.04
2023-03-26T06:45:42.998Z,8.11
2023-03-26T06:46:43.028Z,8.18
2023-03-26T06:47:43.031Z,8.18
2023-03-26T06:48:42.982Z,8.19
2023-03-26T06:49:44.918Z,8.19
2023-03-26T06:50:42.943Z,8.16
2023-03-26T06:51:42.948Z,8.18
2023-03-26T06:52:42.915Z,8.30
2023-03-26T06:53:42.911Z,8.30
2023-03-26T06:54:42.927Z,8.23
2023-03-26T06:55:42.877Z,8.37
2023-03-26T06:56:42.912Z,8.26
2023-03-26T06:57:42.869Z,8.28
2023-03-26T06:58:42.883Z,8.40
2023-03-26T06:59:42.844Z,8.41
2023-03-26T07:00:42.906Z,8.40
2023-03-26T07:01:42.849Z,8.47
2023-03-26T07:02:42.901Z,8.47
2023-03-26T07:03:42.826Z,8.47
2023-03-26T07:04:42.809Z,8.48
2023-03-26T07:05:42.768Z,8.44
2023-03-26T07:06:42.778Z,8.37
2023-03-26T07:07:46.396Z,8.41
2023-03-26T07:08:42.763Z,8.43
2023-03-26T07:09:42.726Z,8.45
2023-03-26T07:10:42.731Z,8.45
2023-03-26T07:11:42.725Z,8.52
2023-03-26T07:12:42.763Z,8.43
2023-03-26T07:13:42.697Z,8.47
2023-03-26T07:14:42.674Z,8.50
2023-03-26T07:15:42.665Z,8.53
2023-03-26T07:16:42.720Z,8.65
2023-03-26T07:17:42.664Z,8.62
2023-03-26T07:18:42.657Z,8.55
2023-03-26T07:19:42.622Z,8.58
2023-03-26T07:20:42.637Z,8.62
2023-03-26T07:21:42.597Z,8.63
2023-03-26T07:22:42.662Z,8.62
2023-03-26T07:23:42.573Z,8.55
2023-03-26T07:24:42.558Z,8.58
2023-03-26T07:25:42.583Z,8.61
2023-03-26T07:26:42.563Z,8.58
2023-03-26T07:27:42.528Z,8.56
2023-03-26T07:28:42.531Z,8.55
2023-03-26T07:29:43.513Z,8.50
2023-03-26T07:30:42.527Z,8.48
2023-03-26T07:31:42.630Z,8.48
2023-03-26T07:32:42.527Z,8.50
2023-03-26T07:33:42.464Z,8.56
2023-03-26T07:34:42.454Z,8.47
2023-03-26T07:35:42.478Z,8.47
2023-03-26T07:36:42.438Z,8.53
2023-03-26T07:37:42.450Z,8.55
2023-03-26T07:38:42.409Z,8.55
2023-03-26T07:39:42.396Z,8.48
2023-03-26T07:40:42.402Z,8.45
2023-03-26T07:41:42.409Z,8.52
2023-03-26T07:42:42.378Z,8.55
2023-03-26T07:43:42.360Z,8.63
2023-03-26T07:44:42.341Z,8.65
2023-03-26T07:45:42.345Z,8.66
2023-03-26T07:46:42.347Z,8.68
2023-03-26T07:47:42.391Z,8.74
2023-03-26T07:48:42.295Z,8.83
2023-03-26T07:49:42.300Z,8.83
2023-03-26T07:50:42.303Z,8.76
2023-03-26T07:51:42.280Z,8.73
2023-03-26T07:52:42.246Z,8.73
2023-03-26T07:53:42.272Z,8.84
2023-03-26T07:54:42.230Z,8.84
2023-03-26T07:55:42.228Z,8.81
2023-03-26T07:56:42.253Z,8.81
2023-03-26T07:57:42.265Z,8.91
2023-03-26T07:58:42.205Z,8.83
2023-03-26T07:59:42.176Z,8.81
2023-03-26T08:00:42.160Z,8.84
2023-03-26T08:01:42.159Z,8.92
2023-03-26T08:02:42.182Z,8.96
2023-03-26T08:03:42.236Z,8.84
2023-03-26T08:04:42.255Z,8.81
2023-03-26T08:05:42.110Z,8.89
2023-03-26T08:06:42.165Z,8.95
2023-03-26T08:07:42.151Z,8.98
2023-03-26T08:08:42.296Z,9.17
2023-03-26T08:09:42.090Z,9.15
2023-03-26T08:10:42.306Z,9.28
2023-03-26T08:11:42.033Z,9.24
2023-03-26T08:12:42.212Z,9.36
2023-03-26T08:13:42.008Z,9.39
2023-03-26T08:14:42.045Z,9.46
2023-03-26T08:15:42.005Z,9.48
2023-03-26T08:16:41.985Z,9.65
2023-03-26T08:17:42.031Z,9.68
2023-03-26T08:18:41.952Z,9.71
2023-03-26T08:19:41.950Z,9.66
2023-03-26T08:20:41.947Z,9.78
2023-03-26T08:21:41.946Z,9.93
2023-03-26T08:22:41.930Z,9.89
2023-03-26T08:23:50.768Z,9.90
2023-03-26T08:24:42.883Z,9.90
2023-03-26T08:25:41.883Z,9.87
2023-03-26T08:26:41.865Z,9.93
2023-03-26T08:27:41.862Z,9.99
2023-03-26T08:28:41.872Z,10.08
2023-03-26T08:29:42.023Z,10.04
2023-03-26T08:30:41.878Z,10.15
2023-03-26T08:31:41.818Z,10.17
2023-03-26T08:32:41.845Z,10.23
2023-03-26T08:33:41.795Z,10.22
2023-03-26T08:34:41.771Z,10.25
2023-03-26T08:35:41.826Z,10.26
2023-03-26T08:36:41.754Z,10.26
2023-03-26T08:37:41.745Z,10.20
2023-03-26T08:38:41.743Z,10.27
2023-03-26T08:39:41.762Z,10.29
2023-03-26T08:40:41.705Z,10.41
2023-03-26T08:41:41.693Z,10.45
2023-03-26T08:42:41.708Z,10.51
2023-03-26T08:43:41.683Z,10.42
2023-03-26T08:44:41.667Z,10.44
2023-03-26T08:45:41.652Z,10.44
2023-03-26T08:46:41.764Z,10.40
2023-03-26T08:47:41.673Z,10.25
2023-03-26T08:48:41.622Z,10.29
2023-03-26T08:49:41.609Z,10.44
2023-03-26T08:50:41.617Z,10.32
2023-03-26T08:51:41.581Z,10.55
2023-03-26T08:52:41.576Z,10.53
2023-03-26T08:53:41.583Z,10.51
2023-03-26T08:54:41.550Z,10.61
2023-03-26T08:55:41.546Z,10.53
2023-03-26T08:56:41.587Z,10.63
2023-03-26T08:57:41.526Z,10.61
2023-03-26T08:58:41.507Z,10.74
2023-03-26T08:59:41.504Z,10.74
2023-03-26T09:00:41.486Z,10.68
2023-03-26T09:01:41.558Z,10.74
2023-03-26T09:02:41.507Z,10.68
2023-03-26T09:03:41.488Z,10.78
2023-03-26T09:04:41.473Z,10.88
2023-03-26T09:05:41.428Z,10.97
2023-03-26T09:06:41.438Z,10.96
2023-03-26T09:07:41.425Z,10.96
2023-03-26T09:08:54.326Z,11.04
2023-03-26T09:09:42.382Z,11.11
2023-03-26T09:10:41.375Z,11.27
2023-03-26T09:11:41.384Z,11.25
2023-03-26T09:12:41.376Z,11.33
2023-03-26T09:13:41.376Z,11.29
2023-03-26T09:14:41.327Z,11.24
2023-03-26T09:15:41.330Z,11.24
2023-03-26T09:16:41.427Z,11.42
2023-03-26T09:17:41.352Z,11.51
2023-03-26T09:18:41.328Z,11.52
2023-03-26T09:19:41.277Z,11.49
2023-03-26T09:20:41.289Z,11.65
2023-03-26T09:21:41.252Z,11.75
2023-03-26T09:22:41.254Z,11.78
2023-03-26T09:23:41.248Z,11.67
2023-03-26T09:24:41.224Z,11.86
2023-03-26T09:25:41.209Z,11.90
2023-03-26T09:26:41.198Z,11.83
2023-03-26T09:27:41.204Z,11.82
2023-03-26T09:28:41.194Z,11.95
2023-03-26T09:29:41.168Z,11.91
2023-03-26T09:30:41.156Z,12.02
2023-03-26T09:31:41.204Z,11.80
2023-03-26T09:32:41.174Z,11.57
2023-03-26T09:33:41.156Z,11.69
2023-03-26T09:34:41.131Z,11.83
2023-03-26T09:35:41.153Z,11.91
2023-03-26T09:36:41.093Z,11.90
2023-03-26T09:37:57.469Z,11.85
2023-03-26T09:38:42.085Z,11.82
2023-03-26T09:39:41.056Z,11.78
2023-03-26T09:40:41.058Z,11.90
2023-03-26T09:41:42.795Z,11.99
2023-03-26T09:42:41.058Z,11.94
2023-03-26T09:43:41.011Z,11.70
2023-03-26T09:44:40.999Z,11.80
2023-03-26T09:45:41.060Z,11.96
2023-03-26T09:46:40.997Z,12.07
2023-03-26T09:47:40.985Z,12.01
2023-03-26T09:48:40.967Z,11.91
2023-03-26T09:49:41.010Z,11.96
2023-03-26T09:50:41.091Z,11.95
2023-03-26T09:51:40.937Z,11.95
2023-03-26T09:52:40.919Z,11.82
2023-03-26T09:53:40.919Z,11.85
2023-03-26T09:54:40.886Z,11.90
2023-03-26T09:55:40.915Z,11.90
2023-03-26T09:56:40.895Z,11.96
2023-03-26T09:57:40.920Z,12.01
2023-03-26T09:58:40.853Z,11.91
2023-03-26T09:59:40.838Z,11.80
2023-03-26T10:00:40.894Z,11.78
2023-03-26T10:01:40.866Z,11.70
2023-03-26T10:02:45.877Z,11.80
2023-03-26T10:03:41.809Z,11.85
2023-03-26T10:04:40.795Z,11.88
2023-03-26T10:05:40.763Z,11.70
2023-03-26T10:06:40.779Z,11.69
2023-03-26T10:07:40.770Z,11.72
2023-03-26T10:08:40.730Z,11.65
2023-03-26T10:09:40.737Z,11.67
2023-03-26T10:10:40.705Z,11.60
2023-03-26T10:11:40.717Z,11.61
2023-03-26T10:12:40.685Z,11.54
2023-03-26T10:13:40.676Z,11.42
2023-03-26T10:14:40.681Z,11.43
2023-03-26T10:15:40.661Z,11.39
2023-03-26T10:16:40.669Z,11.28
2023-03-26T10:17:40.682Z,11.28
2023-03-26T10:18:40.647Z,11.22
2023-03-26T10:19:40.641Z,11.29
2023-03-26T10:20:40.619Z,11.25
2023-03-26T10:21:40.586Z,11.36
2023-03-26T10:22:40.585Z,11.40
2023-03-26T10:23:40.573Z,11.22
2023-03-26T10:24:40.594Z,11.37
2023-03-26T10:25:40.564Z,11.33
2023-03-26T10:26:40.578Z,11.33
2023-03-26T10:27:40.520Z,11.40
2023-03-26T10:28:40.666Z,11.32
2023-03-26T10:29:40.529Z,11.39
2023-03-26T10:30:40.513Z,11.39
2023-03-26T10:31:40.476Z,11.36
2023-03-26T10:32:40.530Z,11.22
2023-03-26T10:33:40.472Z,11.32
2023-03-26T10:34:40.437Z,11.32
2023-03-26T10:35:40.462Z,11.39
2023-03-26T10:36:40.414Z,11.40
2023-03-26T10:37:40.426Z,11.27
2023-03-26T10:38:40.425Z,11.28
2023-03-26T10:39:41.677Z,11.33
2023-03-26T10:40:40.415Z,11.22
2023-03-26T10:41:40.362Z,11.19
2023-03-26T10:42:40.355Z,11.25
2023-03-26T10:43:40.383Z,11.17
2023-03-26T10:44:40.322Z,11.07
2023-03-26T10:45:40.310Z,10.91
2023-03-26T10:46:40.350Z,10.91
2023-03-26T10:47:40.332Z,10.88
2023-03-26T10:48:40.296Z,10.92
2023-03-26T10:49:40.295Z,10.84
2023-03-26T10:50:40.252Z,10.79
2023-03-26T10:51:40.243Z,10.70
2023-03-26T10:52:40.256Z,10.66
2023-03-26T10:53:40.255Z,10.60
2023-03-26T10:54:40.255Z,10.68
2023-03-26T10:55:40.211Z,10.64
2023-03-26T10:56:40.251Z,10.60
2023-03-26T10:57:40.208Z,10.60
2023-03-26T10:58:48.508Z,10.63
2023-03-26T10:59:41.162Z,10.52
2023-03-26T11:00:40.156Z,10.59
2023-03-26T11:01:40.159Z,10.55
2023-03-26T11:02:40.168Z,10.59
2023-03-26T11:03:40.132Z,10.59
2023-03-26T11:04:40.097Z,10.55
2023-03-26T11:05:40.139Z,10.56
2023-03-26T11:06:40.089Z,10.61
2023-03-26T11:07:40.627Z,10.68
2023-03-26T11:08:40.080Z,10.76
2023-03-26T11:09:40.053Z,10.63
2023-03-26T11:10:40.258Z,10.66
2023-03-26T11:11:40.036Z,10.52
2023-03-26T11:12:40.047Z,10.53
2023-03-26T11:13:40.003Z,10.52
2023-03-26T11:14:39.989Z,10.45
2023-03-26T11:15:40.037Z,10.26
2023-03-26T11:16:39.979Z,10.29
2023-03-26T11:17:41.639Z,10.09
2023-03-26T11:18:39.954Z,9.99
2023-03-26T11:19:39.944Z,9.99
2023-03-26T11:20:39.970Z,9.99
2023-03-26T11:21:39.944Z,10.02
2023-03-26T11:22:39.904Z,10.02
2023-03-26T11:23:39.979Z,10.01
2023-03-26T11:24:39.914Z,10.02
2023-03-26T11:25:39.876Z,9.99
2023-03-26T11:26:39.892Z,10.04
2023-03-26T11:27:39.853Z,9.97
2023-03-26T11:28:39.839Z,9.96
2023-03-26T11:29:39.855Z,9.89
2023-03-26T11:30:39.821Z,9.93
2023-03-26T11:31:39.832Z,9.91
2023-03-26T11:32:39.870Z,9.94
2023-03-26T11:33:45.565Z,9.93
2023-03-26T11:34:40.812Z,9.91
2023-03-26T11:35:41.729Z,9.86
2023-03-26T11:36:39.768Z,9.89
2023-03-26T11:37:39.741Z,9.86
2023-03-26T11:38:39.727Z,9.78
2023-03-26T11:39:39.733Z,9.81
2023-03-26T11:40:39.709Z,9.79
2023-03-26T11:41:39.747Z,9.76
2023-03-26T11:42:39.699Z,9.90
2023-03-26T11:43:39.675Z,9.86
2023-03-26T11:44:39.678Z,9.83
2023-03-26T11:45:39.663Z,9.90
2023-03-26T11:46:39.720Z,9.71
2023-03-26T11:47:39.722Z,9.57
2023-03-26T11:48:39.629Z,9.53
2023-03-26T11:49:40.284Z,9.43
2023-03-26T11:50:39.593Z,9.51
2023-03-26T11:51:39.623Z,9.48
2023-03-26T11:52:39.592Z,9.35
2023-03-26T11:53:39.621Z,9.32
2023-03-26T11:54:39.559Z,9.15
2023-03-26T11:55:39.537Z,9.24
2023-03-26T11:56:39.551Z,9.21
2023-03-26T11:57:39.559Z,9.08
2023-03-26T11:58:39.540Z,9.11
2023-03-26T11:59:53.344Z,9.15
2023-03-26T12:00:40.480Z,9.10
2023-03-26T12:01:39.494Z,8.98
2023-03-26T12:02:39.546Z,8.96
2023-03-26T12:03:39.467Z,8.94
2023-03-26T12:04:39.526Z,8.99
2023-03-26T12:05:39.443Z,8.94
2023-03-26T12:06:39.412Z,8.98
2023-03-26T12:07:39.442Z,8.91
2023-03-26T12:08:39.388Z,8.95
2023-03-26T12:09:39.378Z,8.91
2023-03-26T12:10:39.387Z,8.95
2023-03-26T12:11:39.354Z,8.95
2023-03-26T12:12:39.341Z,8.92
2023-03-26T12:13:39.330Z,8.99
2023-03-26T12:14:39.355Z,8.96
2023-03-26T12:15:39.335Z,8.98
2023-03-26T12:16:39.343Z,9.02
2023-03-26T12:17:39.288Z,9.02
2023-03-26T12:18:39.275Z,9.11
2023-03-26T12:19:39.283Z,9.11
2023-03-26T12:20:39.256Z,9.08
2023-03-26T12:21:39.257Z,9.18
2023-03-26T12:22:40.273Z,9.24
2023-03-26T12:23:39.221Z,9.26
2023-03-26T12:24:39.204Z,9.20
2023-03-26T12:25:39.280Z,9.20
2023-03-26T12:26:39.203Z,9.26
2023-03-26T12:27:39.173Z,9.18
2023-03-26T12:28:40.165Z,9.13
2023-03-26T12:29:39.180Z,9.10
2023-03-26T12:30:39.163Z,9.05
2023-03-26T12:31:39.197Z,9.11
2023-03-26T12:32:46.221Z,9.10
2023-03-26T12:33:40.094Z,8.99
2023-03-26T12:34:39.110Z,9.08
2023-03-26T12:35:39.132Z,8.95
2023-03-26T12:36:39.237Z,9.02
2023-03-26T12:37:39.057Z,8.98
2023-03-26T12:38:39.066Z,9.01
2023-03-26T12:40:08.863Z,8.96
2023-03-26T12:40:39.051Z,8.87
2023-03-26T12:42:36.610Z,8.86
2023-03-26T12:44:50.582Z,8.94
2023-03-26T12:44:50.880Z,8.91
2023-03-26T12:44:51.110Z,8.92
2023-03-26T12:45:39.978Z,8.86
2023-03-26T12:47:56.927Z,8.84
2023-03-26T12:47:59.421Z,8.83
2023-03-26T12:48:40.021Z,8.92
2023-03-26T12:49:38.929Z,8.92
2023-03-26T12:50:38.915Z,8.81
2023-03-26T12:51:38.902Z,8.95
2023-03-26T12:52:38.918Z,8.92
2023-03-26T12:53:38.874Z,8.95
2023-03-26T12:54:38.868Z,8.96
2023-03-26T12:55:38.854Z,9.01
2023-03-26T12:56:38.957Z,9.08
2023-03-26T12:57:38.882Z,9.13
2023-03-26T12:58:38.850Z,9.14
2023-03-26T12:59:38.814Z,9.21
2023-03-26T13:00:38.797Z,9.13
2023-03-26T13:01:38.878Z,9.14
2023-03-26T13:02:38.904Z,9.20
2023-03-26T13:03:38.824Z,9.18
2023-03-26T13:04:38.756Z,9.21
2023-03-26T13:05:40.732Z,9.18
2023-03-26T13:07:00.530Z,9.21
2023-03-26T13:07:44.494Z,9.20
2023-03-26T13:08:38.723Z,9.38
2023-03-26T13:09:38.708Z,9.29
2023-03-26T13:10:38.744Z,9.42
2023-03-26T13:11:38.683Z,9.31
2023-03-26T13:12:38.684Z,9.36
2023-03-26T13:13:38.657Z,9.36